Time;durP1;ratioP1;P1;durP2;ratioP2;P2;SDS_P1;SDS_P2;PMS_P1;PMS_P2;Temp;Humidity;BMP_temperature;BMP_pressure;BME280_temperature;BME280_humidity;BME280_pressure;Samples;Min_cycle;Max_cycle;Signal;HPM_P1;HPM_P2
2023/04/12 00:00:32;;;;;;;11.27;7.10;;;;;;;7.65;67.04;93059.94;5062931;28;20346;-71
2023/04/12 00:02:58;;;;;;;13.70;7.93;;;;;;;7.66;67.09;93052.78;5062717;28;20029;-71
2023/04/12 00:05:26;;;;;;;13.18;7.30;;;;;;;7.68;67.41;93051.38;5062522;28;20094;-71
2023/04/12 00:07:54;;;;;;;17.27;8.38;;;;;;;7.68;67.03;93051.38;5062672;28;20024;-71
2023/04/12 00:10:20;;;;;;;22.48;7.57;;;;;;;7.68;67.17;93040.75;5062607;28;20111;-71
2023/04/12 00:12:46;;;;;;;14.43;8.32;;;;;;;7.68;67.19;93029.38;5062729;28;20036;-72
2023/04/12 00:15:12;;;;;;;13.88;8.00;;;;;;;7.69;67.26;93037.00;5062611;28;20024;-71
2023/04/12 00:17:37;;;;;;;15.43;8.35;;;;;;;7.68;67.32;93024.06;5062681;28;20215;-71
2023/04/12 00:20:11;;;;;;;16.02;8.05;;;;;;;7.75;66.84;93035.75;5062758;28;20025;-71
2023/04/12 00:22:37;;;;;;;14.55;8.05;;;;;;;7.74;67.11;93036.09;5062478;28;20036;-71
2023/04/12 00:25:03;;;;;;;15.82;8.00;;;;;;;7.71;66.81;93028.75;5062467;28;20034;-71
2023/04/12 00:27:28;;;;;;;16.23;8.27;;;;;;;7.77;66.86;93030.91;5062488;28;20029;-71
2023/04/12 00:29:54;;;;;;;11.45;7.43;;;;;;;7.76;66.71;93032.00;5062494;28;20029;-71
2023/04/12 00:32:19;;;;;;;15.85;9.27;;;;;;;7.76;66.90;93029.34;5061260;28;20025;-70
2023/04/12 00:34:45;;;;;;;14.02;7.80;;;;;;;7.72;66.97;93025.78;5062427;28;20122;-70
2023/04/12 00:37:10;;;;;;;15.43;8.48;;;;;;;7.77;67.04;93028.25;5063056;28;20203;-71
2023/04/12 00:39:35;;;;;;;19.50;9.05;;;;;;;7.75;67.04;93035.75;5066399;28;20386;-71
2023/04/12 00:42:04;;;;;;;14.05;8.23;;;;;;;7.76;66.86;93037.31;5066590;28;20032;-71
2023/04/12 00:44:31;;;;;;;17.45;9.50;;;;;;;7.74;67.04;93023.59;5066263;28;20033;-71
2023/04/12 00:46:58;;;;;;;19.17;10.25;;;;;;;7.74;67.17;93022.81;5066134;28;20025;-71
2023/04/12 00:49:28;;;;;;;16.83;8.68;;;;;;;7.70;67.11;93033.28;5066226;28;20230;-71
2023/04/12 00:51:54;;;;;;;16.08;8.07;;;;;;;7.72;67.15;93020.47;5066133;28;20029;-72
2023/04/12 00:54:21;;;;;;;16.67;9.38;;;;;;;7.76;67.08;93016.09;5066060;28;20192;-72
2023/04/12 00:56:47;;;;;;;16.58;7.60;;;;;;;7.73;67.24;93021.25;5065877;28;20051;-72
2023/04/12 00:59:13;;;;;;;17.02;8.85;;;;;;;7.69;67.01;93015.78;5065995;28;20033;-72
2023/04/12 01:01:39;;;;;;;17.38;8.50;;;;;;;7.62;67.43;93018.94;5065840;28;20029;-72
2023/04/12 01:04:06;;;;;;;15.10;8.38;;;;;;;7.68;67.39;93016.91;5065813;28;20025;-72
2023/04/12 01:06:45;;;;;;;23.20;9.02;;;;;;;7.63;67.47;93015.19;5065973;28;20044;-72
2023/04/12 01:09:49;;;;;;;19.38;8.98;;;;;;;7.59;67.60;93008.16;5065940;28;20028;-72
2023/04/12 01:12:32;;;;;;;19.10;8.98;;;;;;;7.61;67.69;93011.28;5043891;28;20037;-72
2023/04/12 01:15:07;;;;;;;16.27;9.13;;;;;;;7.62;67.29;93004.88;5050385;28;20044;-72
2023/04/12 01:17:42;;;;;;;15.75;8.82;;;;;;;7.63;67.19;93004.59;5066031;28;20048;-72
2023/04/12 01:20:13;;;;;;;17.17;8.77;;;;;;;7.60;67.12;92999.91;5065699;28;20028;-72
2023/04/12 01:22:41;;;;;;;15.85;8.23;;;;;;;7.62;67.00;92994.28;5065675;28;20032;-73
2023/04/12 01:25:44;;;;;;;15.48;8.20;;;;;;;7.64;66.78;93000.06;5065418;28;20037;-71
2023/04/12 01:28:14;;;;;;;18.15;9.15;;;;;;;7.62;66.91;93005.66;5065384;28;20024;-71
2023/04/12 01:30:42;;;;;;;16.45;8.80;;;;;;;7.61;66.99;93008.63;5065360;28;20021;-71
2023/04/12 01:33:10;;;;;;;17.42;8.95;;;;;;;7.63;66.75;92990.53;5065353;28;20048;-71
2023/04/12 01:35:36;;;;;;;15.90;8.77;;;;;;;7.65;67.04;92996.28;5065409;28;20032;-71
2023/04/12 01:38:03;;;;;;;15.00;9.40;;;;;;;7.64;67.07;92992.88;5065448;28;20235;-71
2023/04/12 01:40:29;;;;;;;18.20;9.07;;;;;;;7.61;67.00;92993.50;5065349;28;20025;-71
2023/04/12 01:43:08;;;;;;;16.27;9.73;;;;;;;7.65;66.88;93006.91;5065240;28;20047;-70
2023/04/12 01:45:34;;;;;;;19.90;9.25;;;;;;;7.62;66.82;93000.34;5065278;28;20020;-70
2023/04/12 01:48:01;;;;;;;18.58;9.70;;;;;;;7.61;67.19;92998.81;5065088;28;20263;-71
2023/04/12 01:50:38;;;;;;;19.48;8.85;;;;;;;7.63;67.26;93001.13;5064289;28;20066;-71
2023/04/12 01:53:17;;;;;;;16.27;9.23;;;;;;;7.62;66.83;92996.94;5065044;28;20073;-71
2023/04/12 01:55:47;;;;;;;20.20;9.00;;;;;;;7.63;67.12;93001.13;5065002;28;20326;-71
2023/04/12 01:58:15;;;;;;;14.98;8.20;;;;;;;7.66;66.65;92997.09;5064632;28;20055;-71
2023/04/12 02:00:43;;;;;;;16.08;10.10;;;;;;;7.73;66.48;92995.50;5064687;28;20021;-71
2023/04/12 02:03:09;;;;;;;16.08;8.80;;;;;;;7.71;66.38;92976.47;5064669;28;20021;-71
2023/04/12 02:05:35;;;;;;;15.93;8.82;;;;;;;7.72;66.46;92990.53;5064797;28;20036;-71
2023/04/12 02:08:02;;;;;;;18.10;9.40;;;;;;;7.74;65.92;92986.44;5064822;28;20338;-71
2023/04/12 02:10:32;;;;;;;16.63;8.90;;;;;;;7.73;65.97;92982.22;5064500;28;20070;-72
2023/04/12 02:12:59;;;;;;;21.05;9.20;;;;;;;7.78;66.05;92981.31;5064589;28;20075;-71
2023/04/12 02:15:26;;;;;;;20.52;9.50;;;;;;;7.63;66.38;92979.91;5064324;28;20129;-71
2023/04/12 02:17:52;;;;;;;17.48;9.77;;;;;;;7.65;66.62;92998.94;5064561;28;20033;-71
2023/04/12 02:20:19;;;;;;;16.55;9.90;;;;;;;7.65;66.63;92988.34;5064543;28;20017;-71
2023/04/12 02:22:45;;;;;;;16.77;8.98;;;;;;;7.66;66.53;92973.22;5064448;28;20301;-71
2023/04/12 02:25:10;;;;;;;18.92;9.80;;;;;;;7.69;66.70;92985.84;5064333;28;20032;-71
2023/04/12 02:27:36;;;;;;;18.52;9.70;;;;;;;7.71;66.58;92976.47;5064339;28;20025;-72
2023/04/12 02:30:03;;;;;;;18.58;9.80;;;;;;;7.64;66.80;92986.78;5064431;28;20067;-71
2023/04/12 02:32:29;;;;;;;18.90;9.25;;;;;;;7.62;67.00;92973.84;5064384;28;20032;-71
2023/04/12 02:34:57;;;;;;;15.95;9.10;;;;;;;7.65;67.44;92977.72;5064027;28;20025;-71
2023/04/12 02:37:26;;;;;;;19.15;10.45;;;;;;;7.62;67.46;92976.50;5064158;28;20342;-71
2023/04/12 02:39:55;;;;;;;20.42;10.25;;;;;;;7.65;67.36;92980.38;5064075;28;20067;-72
2023/04/12 02:42:21;;;;;;;20.05;9.88;;;;;;;7.69;67.00;92975.22;5064002;28;20067;-71
2023/04/12 02:44:47;;;;;;;15.02;9.30;;;;;;;7.64;67.17;92979.59;5064041;28;20041;-70
2023/04/12 02:47:13;;;;;;;19.80;10.30;;;;;;;7.58;67.28;92980.88;5063921;28;20353;-70
2023/04/12 02:49:38;;;;;;;18.73;8.63;;;;;;;7.55;66.90;92975.41;5063875;28;20238;-70
2023/04/12 02:52:04;;;;;;;16.30;9.40;;;;;;;7.52;66.82;92974.16;5064026;28;20247;-70
2023/04/12 02:54:29;;;;;;;16.23;8.82;;;;;;;7.54;66.83;92971.22;5063807;28;20040;-70
2023/04/12 02:56:55;;;;;;;13.95;8.73;;;;;;;7.55;66.51;92970.91;5063729;28;20116;-70
2023/04/12 02:59:20;;;;;;;17.38;8.88;;;;;;;7.56;66.62;92979.63;5063865;28;20092;-70
2023/04/12 03:01:46;;;;;;;17.50;9.52;;;;;;;7.57;66.67;92976.66;5062724;28;20025;-70
2023/04/12 03:04:11;;;;;;;19.15;9.57;;;;;;;7.65;66.69;92993.63;5062517;28;20374;-70
2023/04/12 03:06:42;;;;;;;16.88;8.70;;;;;;;7.66;67.00;92968.69;5063320;28;20029;-71
2023/04/12 03:09:07;;;;;;;16.92;9.15;;;;;;;7.70;67.06;92971.50;5063582;28;20272;-69
2023/04/12 03:11:33;;;;;;;20.73;10.32;;;;;;;7.72;67.15;92964.00;5063635;28;20021;-70
2023/04/12 03:13:58;;;;;;;18.85;10.88;;;;;;;7.77;67.31;92969.88;5063301;28;20239;-70
2023/04/12 03:16:28;;;;;;;21.17;11.48;;;;;;;7.81;67.51;92960.19;5063429;28;20025;-70
2023/04/12 03:18:55;;;;;;;21.45;10.73;;;;;;;7.85;67.33;92970.97;5063343;28;20087;-70
2023/04/12 03:21:21;;;;;;;22.08;12.27;;;;;;;7.89;67.22;92987.81;5063380;28;20303;-70
2023/04/12 03:23:46;;;;;;;24.45;12.50;;;;;;;7.89;67.29;92966.59;5063384;28;20028;-70
2023/04/12 03:26:12;;;;;;;24.00;12.57;;;;;;;7.92;67.36;92965.19;5063152;28;20036;-70
2023/04/12 03:28:37;;;;;;;27.88;13.60;;;;;;;7.95;67.16;92962.66;5063241;28;20091;-70
2023/04/12 03:31:03;;;;;;;26.52;12.45;;;;;;;7.92;67.31;92978.47;5063295;28;20322;-71
2023/04/12 03:33:29;;;;;;;24.05;12.23;;;;;;;7.99;66.99;92970.78;5062829;28;20027;-71
2023/04/12 03:35:55;;;;;;;21.67;11.77;;;;;;;7.95;66.74;92964.53;5062969;28;20016;-71
2023/04/12 03:38:20;;;;;;;19.98;11.63;;;;;;;7.91;66.46;92963.63;5063093;28;20040;-71
2023/04/12 03:40:46;;;;;;;22.38;11.82;;;;;;;7.92;66.52;92981.13;5062922;28;20016;-71
2023/04/12 03:43:11;;;;;;;20.58;11.65;;;;;;;7.83;66.64;92987.19;5062933;28;20017;-71
2023/04/12 03:45:37;;;;;;;22.77;12.27;;;;;;;7.90;66.34;92983.31;5062791;28;20098;-70
2023/04/12 03:48:03;;;;;;;19.15;11.45;;;;;;;7.87;66.12;92976.75;5063153;28;20016;-70
2023/04/12 03:50:30;;;;;;;17.98;10.63;;;;;;;7.81;66.52;92991.28;5062932;28;20248;-71
2023/04/12 03:52:56;;;;;;;24.55;12.15;;;;;;;7.77;66.63;92993.78;5062679;28;20017;-69
2023/04/12 03:55:21;;;;;;;19.38;10.70;;;;;;;7.76;67.17;92994.09;5062778;28;20040;-69
2023/04/12 03:57:47;;;;;;;21.35;11.98;;;;;;;7.73;68.19;92995.50;5062608;28;20060;-70
2023/04/12 04:00:13;;;;;;;20.90;12.23;;;;;;;7.66;69.29;92991.78;5062678;28;20020;-69
2023/04/12 04:02:39;;;;;;;27.27;13.50;;;;;;;7.56;69.14;92996.31;5062815;28;20250;-69
2023/04/12 04:05:04;;;;;;;19.85;11.70;;;;;;;7.55;69.13;92988.66;5062789;28;20028;-68
2023/04/12 04:07:33;;;;;;;20.58;11.55;;;;;;;7.56;68.74;92976.97;5062834;28;20017;-69
2023/04/12 04:09:58;;;;;;;20.73;11.55;;;;;;;7.62;68.44;92992.41;5062503;28;20246;-69
2023/04/12 04:12:24;;;;;;;20.48;11.65;;;;;;;7.63;67.66;92998.47;5064935;28;20055;-69
2023/04/12 04:14:50;;;;;;;21.50;11.90;;;;;;;7.64;67.28;93010.66;5069291;28;20168;-70
2023/04/12 04:17:15;;;;;;;19.75;11.40;;;;;;;7.63;66.93;92998.47;5069214;28;20017;-70
2023/04/12 04:19:40;;;;;;;23.38;11.63;;;;;;;7.70;67.28;93006.75;5069321;28;20058;-70
2023/04/12 04:22:06;;;;;;;19.00;10.82;;;;;;;7.66;66.82;93013.78;5069191;28;20305;-70
2023/04/12 04:24:33;;;;;;;20.13;10.98;;;;;;;7.65;66.92;93014.84;5069215;28;20231;-70
2023/04/12 04:26:58;;;;;;;24.08;11.63;;;;;;;7.67;67.05;93023.28;5068861;28;20043;-71
2023/04/12 04:29:24;;;;;;;21.77;11.48;;;;;;;7.59;67.34;93038.13;5069181;28;20322;-69
2023/04/12 04:31:49;;;;;;;17.48;10.95;;;;;;;7.61;67.27;93024.53;5069089;28;20028;-69
2023/04/12 04:34:16;;;;;;;18.20;10.82;;;;;;;7.61;67.14;93053.72;5069015;28;20092;-69
2023/04/12 04:36:42;;;;;;;21.90;11.80;;;;;;;7.59;67.79;93047.94;5069173;28;20219;-69
2023/04/12 04:39:08;;;;;;;20.65;10.85;;;;;;;7.61;67.47;93038.59;5068598;28;20017;-69
2023/04/12 04:41:37;;;;;;;19.52;11.60;;;;;;;7.61;67.23;93048.41;5067831;28;20311;-70
2023/04/12 04:44:08;;;;;;;16.30;9.90;;;;;;;7.64;67.31;93040.59;5069247;28;20365;-69
2023/04/12 04:46:36;;;;;;;15.85;9.18;;;;;;;7.59;66.83;93061.19;5069012;28;20036;-69
2023/04/12 04:49:02;;;;;;;16.90;9.65;;;;;;;7.56;66.43;93045.94;5069133;28;20210;-70
2023/04/12 04:51:28;;;;;;;18.45;9.15;;;;;;;7.56;66.21;93053.88;5068908;28;20042;-69
2023/04/12 04:53:53;;;;;;;14.95;8.27;;;;;;;7.55;66.19;93054.97;5068995;28;20056;-70
2023/04/12 04:56:21;;;;;;;14.43;8.20;;;;;;;7.53;66.05;93051.84;5068728;28;20349;-70
2023/04/12 04:58:47;;;;;;;16.17;8.65;;;;;;;7.51;65.73;93056.69;5068952;28;20335;-70
2023/04/12 05:01:15;;;;;;;16.60;8.75;;;;;;;7.47;65.01;93047.78;5068829;28;20023;-70
2023/04/12 05:03:43;;;;;;;13.10;6.65;;;;;;;7.51;65.07;93057.47;5068822;28;20082;-70
2023/04/12 05:06:08;;;;;;;15.48;8.15;;;;;;;7.54;65.14;93050.75;5068649;28;20036;-71
2023/04/12 05:08:34;;;;;;;11.57;6.38;;;;;;;7.55;64.40;93073.53;5068757;28;20017;-72
2023/04/12 05:11:00;;;;;;;15.25;8.25;;;;;;;7.56;64.57;93070.56;5068761;28;20223;-70
2023/04/12 05:13:25;;;;;;;12.07;5.78;;;;;;;7.51;64.54;93065.44;5068791;28;20275;-70
2023/04/12 05:15:51;;;;;;;13.23;6.68;;;;;;;7.55;64.92;93062.91;5068506;28;20071;-69
2023/04/12 05:18:19;;;;;;;12.55;7.55;;;;;;;7.59;64.55;93085.88;5068393;28;20105;-69
2023/04/12 05:20:47;;;;;;;12.02;6.13;;;;;;;7.53;63.65;93086.31;5068623;28;20048;-69
2023/04/12 05:23:12;;;;;;;11.93;6.28;;;;;;;7.57;63.84;93084.59;5067790;28;20048;-68
2023/04/12 05:25:43;;;;;;;9.82;5.63;;;;;;;7.56;63.39;93081.19;5064758;28;20052;-68
2023/04/12 05:28:12;;;;;;;11.57;5.45;;;;;;;7.50;63.26;93071.81;5065473;28;20033;-70
2023/04/12 05:30:38;;;;;;;11.52;5.15;;;;;;;7.58;62.34;93078.22;5065433;28;20033;-67
2023/04/12 05:33:04;;;;;;;9.45;5.68;;;;;;;7.55;62.18;93079.63;5065386;28;20381;-67
2023/04/12 05:35:30;;;;;;;12.75;5.20;;;;;;;7.59;61.96;93077.09;5065187;28;20071;-67
2023/04/12 05:37:55;;;;;;;10.10;5.35;;;;;;;7.53;61.07;93078.34;5097713;28;20079;-68
2023/04/12 05:40:21;;;;;;;8.40;5.13;;;;;;;7.60;61.10;93076.03;5064004;28;20151;-68
2023/04/12 05:42:46;;;;;;;9.30;4.75;;;;;;;7.59;61.22;93085.88;5065190;28;20035;-70
2023/04/12 05:45:11;;;;;;;9.45;4.30;;;;;;;7.60;60.76;93082.09;5064832;28;20311;-68
2023/04/12 05:47:37;;;;;;;11.20;4.53;;;;;;;7.55;60.75;93074.31;5065274;28;20088;-73
2023/04/12 05:50:02;;;;;;;10.45;4.38;;;;;;;7.46;60.93;93083.38;5065204;28;20060;-76
2023/04/12 05:52:28;;;;;;;7.05;3.53;;;;;;;7.50;59.75;93085.06;5063836;28;20029;-76
2023/04/12 05:54:53;;;;;;;7.63;4.15;;;;;;;7.50;59.59;93066.50;5064715;28;20055;-76
2023/04/12 05:57:19;;;;;;;7.63;4.10;;;;;;;7.57;59.20;93068.69;5064553;28;20068;-76
2023/04/12 05:59:44;;;;;;;7.68;4.03;;;;;;;7.56;58.98;93075.88;5064856;28;20100;-80
2023/04/12 06:02:10;;;;;;;7.70;4.00;;;;;;;7.50;59.08;93097.56;5064694;28;20250;-77
2023/04/12 06:04:37;;;;;;;5.75;2.90;;;;;;;7.35;59.06;93077.59;5063667;28;20320;-78
2023/04/12 06:07:04;;;;;;;8.35;3.20;;;;;;;7.36;59.25;93101.13;5064748;28;20096;-79
2023/04/12 06:09:30;;;;;;;7.47;3.70;;;;;;;7.32;59.68;93108.13;5064657;28;20029;-78
2023/04/12 06:11:56;;;;;;;5.85;3.33;;;;;;;7.19;60.37;93099.25;5063418;28;20033;-78
2023/04/12 06:14:21;;;;;;;5.85;3.13;;;;;;;7.13;60.83;93100.47;5064642;28;20044;-79
2023/04/12 06:16:47;;;;;;;7.32;3.72;;;;;;;7.13;60.48;93102.38;5064881;28;20307;-81
2023/04/12 06:19:12;;;;;;;8.55;3.63;;;;;;;7.16;61.10;93102.50;5064502;28;20331;-73
2023/04/12 06:21:38;;;;;;;8.55;4.10;;;;;;;7.07;61.41;93098.31;5064443;28;20199;-78
2023/04/12 06:24:03;;;;;;;6.88;3.55;;;;;;;7.10;61.43;93122.28;5063220;28;20028;-78
2023/04/12 06:26:29;;;;;;;6.32;3.83;;;;;;;7.06;61.88;93099.38;5063950;28;20035;-77
2023/04/12 06:28:55;;;;;;;7.70;3.45;;;;;;;7.05;62.90;93114.50;5062857;28;20027;-77
2023/04/12 06:31:20;;;;;;;6.57;3.72;;;;;;;7.13;62.71;93116.38;5063379;28;20336;-77
2023/04/12 06:33:46;;;;;;;6.43;3.35;;;;;;;7.16;63.34;93110.44;5064167;28;20017;-78
2023/04/12 06:36:13;;;;;;;5.95;3.15;;;;;;;7.29;62.38;93108.00;5063677;28;20084;-78
2023/04/12 06:38:39;;;;;;;6.57;3.33;;;;;;;7.29;61.91;93102.69;5062569;28;20020;-78
2023/04/12 06:41:05;;;;;;;7.60;3.28;;;;;;;7.35;61.20;93104.88;5062237;28;20192;-78
2023/04/12 06:43:30;;;;;;;5.88;3.33;;;;;;;7.42;60.93;93099.88;5062326;28;20025;-78
2023/04/12 06:45:57;;;;;;;4.72;2.30;;;;;;;7.41;60.76;93106.28;5061968;28;20053;-78
2023/04/12 06:48:22;;;;;;;5.35;2.80;;;;;;;7.53;60.37;93123.44;5062205;28;20031;-78
2023/04/12 06:50:48;;;;;;;6.35;3.28;;;;;;;7.59;61.05;93106.28;5062175;28;20095;-78
2023/04/12 06:53:13;;;;;;;13.07;3.00;;;;;;;7.67;60.46;93102.06;5062916;28;20024;-78
2023/04/12 06:55:40;;;;;;;6.43;3.03;;;;;;;7.64;60.83;93093.66;5063879;28;20021;-78
2023/04/12 06:58:05;;;;;;;5.80;3.08;;;;;;;7.68;60.66;93098.34;5063612;28;20049;-78
2023/04/12 07:00:31;;;;;;;5.15;3.33;;;;;;;7.63;60.80;93086.81;5063906;28;20021;-78
2023/04/12 07:02:56;;;;;;;6.85;3.13;;;;;;;7.71;60.73;93098.47;5063589;28;20020;-78
2023/04/12 07:05:22;;;;;;;4.63;2.90;;;;;;;7.83;60.32;93088.00;5063670;28;20032;-78
2023/04/12 07:07:47;;;;;;;10.18;2.63;;;;;;;7.93;60.38;93088.78;5063624;28;20063;-78
2023/04/12 07:10:13;;;;;;;3.97;2.17;;;;;;;7.95;59.66;93087.38;5063324;28;20021;-78
2023/04/12 07:12:38;;;;;;;6.07;2.65;;;;;;;8.00;59.82;93094.41;5063409;28;20037;-78
2023/04/12 07:15:04;;;;;;;7.15;3.13;;;;;;;8.16;59.55;93095.47;5063591;28;20017;-77
2023/04/12 07:17:30;;;;;;;6.05;2.97;;;;;;;8.13;58.72;93098.75;5063392;28;20043;-78
2023/04/12 07:19:55;;;;;;;6.45;3.60;;;;;;;8.19;58.27;93105.44;5063294;28;20024;-78
2023/04/12 07:22:21;;;;;;;5.45;2.65;;;;;;;8.09;58.70;93081.88;5063252;28;20017;-77
2023/04/12 07:24:48;;;;;;;5.35;3.28;;;;;;;8.20;58.28;93101.72;5062117;28;20056;-77
2023/04/12 07:27:14;;;;;;;6.25;3.08;;;;;;;8.08;58.66;93100.78;5063114;28;20021;-77
2023/04/12 07:29:40;;;;;;;4.30;2.63;;;;;;;7.94;59.15;93107.06;5063053;28;20315;-77
2023/04/12 07:32:08;;;;;;;6.70;3.10;;;;;;;7.82;59.68;93096.31;5063133;28;20020;-77
2023/04/12 07:34:33;;;;;;;5.03;3.08;;;;;;;7.74;59.88;93092.56;5061850;28;20020;-77
2023/04/12 07:36:59;;;;;;;4.78;2.72;;;;;;;7.76;58.42;93086.94;5063115;28;20062;-78
2023/04/12 07:39:26;;;;;;;4.38;3.03;;;;;;;7.67;59.20;93092.25;5063204;28;20520;-78
2023/04/12 07:41:51;;;;;;;7.00;2.78;;;;;;;7.69;59.56;93094.59;5062975;28;20311;-78
2023/04/12 07:44:17;;;;;;;5.85;3.58;;;;;;;7.86;59.50;93075.22;5062908;28;20052;-78
2023/04/12 07:46:43;;;;;;;5.32;2.78;;;;;;;8.02;58.65;93076.31;5062255;28;20021;-78
2023/04/12 07:49:09;;;;;;;5.65;2.58;;;;;;;8.09;58.04;93081.88;5062883;28;20040;-78
2023/04/12 07:51:35;;;;;;;5.82;3.22;;;;;;;8.12;57.91;93070.66;5063021;28;20218;-78
2023/04/12 07:54:01;;;;;;;5.03;3.00;;;;;;;8.09;57.86;93081.88;5063332;28;20083;-78
2023/04/12 07:56:26;;;;;;;6.45;2.80;;;;;;;8.26;57.91;93090.91;5062688;28;20036;-78
2023/04/12 07:58:52;;;;;;;5.47;2.78;;;;;;;8.35;56.99;93063.25;5062598;28;20051;-78
2023/04/12 08:01:17;;;;;;;6.43;2.05;;;;;;;8.34;56.61;93066.19;5062894;28;20025;-78
2023/04/12 08:03:43;;;;;;;5.53;2.95;;;;;;;8.47;56.80;93049.31;5062771;28;20025;-78
2023/04/12 08:06:08;;;;;;;5.32;1.95;;;;;;;8.54;54.92;93060.22;5062630;28;20041;-78
2023/04/12 08:08:34;;;;;;;2.60;1.85;;;;;;;8.52;54.73;93051.78;5062914;28;20059;-78
2023/04/12 08:11:01;;;;;;;3.55;2.00;;;;;;;8.56;54.37;93055.38;5062636;28;20024;-78
2023/04/12 08:13:27;;;;;;;5.22;2.13;;;;;;;8.52;53.60;93051.78;5062458;28;20067;-78
2023/04/12 08:15:52;;;;;;;3.17;1.70;;;;;;;8.44;50.01;93065.88;5062442;28;20020;-78
2023/04/12 08:18:18;;;;;;;3.17;1.50;;;;;;;8.34;47.53;93045.72;5062634;28;20021;-78
2023/04/12 08:20:44;;;;;;;6.00;1.42;;;;;;;8.29;48.16;93037.97;5062709;28;20035;-78
2023/04/12 08:23:10;;;;;;;3.72;1.73;;;;;;;8.25;48.25;93066.25;5062588;28;20050;-78
2023/04/12 08:25:36;;;;;;;4.65;1.63;;;;;;;8.34;48.18;93063.56;5062463;28;20092;-78
2023/04/12 08:28:02;;;;;;;9.00;1.40;;;;;;;8.45;48.89;93064.81;5062447;28;20025;-77
2023/04/12 08:30:28;;;;;;;2.75;1.63;;;;;;;8.52;48.87;93054.44;5062326;28;20084;-77
2023/04/12 08:32:53;;;;;;;2.70;1.13;;;;;;;8.57;47.87;93043.66;5062650;28;20021;-77
2023/04/12 08:35:19;;;;;;;2.88;1.50;;;;;;;8.74;48.10;93064.03;5062514;28;20016;-77
2023/04/12 08:37:45;;;;;;;1.85;1.00;;;;;;;8.90;47.51;93045.66;5062168;28;20280;-77
2023/04/12 08:40:10;;;;;;;2.83;1.33;;;;;;;9.12;46.77;93033.16;5062457;28;20345;-77
2023/04/12 08:42:37;;;;;;;2.97;1.50;;;;;;;9.23;46.66;93066.25;5062192;28;20327;-77
2023/04/12 08:45:07;;;;;;;2.85;1.40;;;;;;;9.32;46.61;93032.41;5061037;28;20027;-77
2023/04/12 08:47:38;;;;;;;3.22;1.42;;;;;;;9.37;46.53;93050.81;5062635;28;20088;-77
2023/04/12 08:50:08;;;;;;;5.57;1.50;;;;;;;9.49;46.79;93052.78;5062415;28;20024;-77
2023/04/12 08:52:34;;;;;;;2.65;1.30;;;;;;;9.46;46.90;93048.09;5062417;28;20020;-77
2023/04/12 08:55:05;;;;;;;2.60;1.20;;;;;;;9.55;44.96;93045.38;5062225;28;20052;-78
2023/04/12 08:57:33;;;;;;;3.63;1.33;;;;;;;9.54;44.47;93062.44;5062005;28;20053;-77
2023/04/12 09:00:00;;;;;;;3.22;1.30;;;;;;;9.40;43.80;93060.03;5063156;28;20028;-77
2023/04/12 09:02:26;;;;;;;4.32;1.20;;;;;;;9.30;44.08;93050.56;5066043;28;20032;-77
2023/04/12 09:04:53;;;;;;;2.40;1.33;;;;;;;9.33;44.82;93060.56;5065860;28;20049;-76
2023/04/12 09:07:22;;;;;;;2.00;1.20;;;;;;;9.28;44.42;93034.16;5065894;28;20079;-78
2023/04/12 09:09:48;;;;;;;3.60;1.35;;;;;;;9.29;43.99;93038.38;5065579;28;20017;-77
2023/04/12 09:12:14;;;;;;;5.70;1.40;;;;;;;9.31;44.83;93038.06;5065828;28;20449;-76
2023/04/12 09:14:43;;;;;;;11.48;1.50;;;;;;;9.43;44.70;93046.88;5065850;28;20319;-76
2023/04/12 09:17:26;;;;;;;2.35;1.40;;;;;;;9.57;44.20;93051.16;5065608;28;20017;-76
2023/04/12 09:19:52;;;;;;;3.60;1.50;;;;;;;9.57;43.02;93049.25;5065615;28;20223;-76
2023/04/12 09:22:18;;;;;;;3.63;1.33;;;;;;;9.61;42.57;93057.38;5065547;28;20028;-76
2023/04/12 09:24:49;;;;;;;5.18;1.67;;;;;;;9.77;42.39;93017.63;5065746;28;20021;-76
2023/04/12 09:27:15;;;;;;;2.33;1.20;;;;;;;9.88;41.87;93031.31;5065396;28;20029;-78
2023/04/12 09:29:40;;;;;;;2.65;1.23;;;;;;;9.98;41.97;93028.22;5065281;28;20028;-77
2023/04/12 09:32:08;;;;;;;4.43;1.35;;;;;;;10.16;42.25;93021.63;5064163;28;20031;-77
2023/04/12 09:34:34;;;;;;;3.15;1.27;;;;;;;10.29;41.80;93013.63;5065511;28;20035;-77
2023/04/12 09:37:15;;;;;;;3.42;1.60;;;;;;;10.44;39.42;93028.97;5065327;28;20040;-77
2023/04/12 09:39:41;;;;;;;3.17;1.05;;;;;;;10.49;40.50;93041.34;5065009;28;20032;-77
2023/04/12 09:42:08;;;;;;;3.80;1.50;;;;;;;10.50;40.18;93005.56;5065339;28;20035;-77
2023/04/12 09:44:34;;;;;;;4.47;1.50;;;;;;;10.72;40.56;93055.00;5064874;28;20150;-77
2023/04/12 09:47:01;;;;;;;5.18;1.77;;;;;;;10.71;38.89;93016.13;5063912;28;20052;-77
2023/04/12 09:49:36;;;;;;;3.85;1.40;;;;;;;10.68;39.65;92987.47;5064890;28;20020;-76
2023/04/12 09:52:02;;;;;;;2.92;1.20;;;;;;;10.83;38.90;92981.47;5065234;28;20041;-77
2023/04/12 09:54:28;;;;;;;3.33;1.20;;;;;;;10.93;38.29;92996.22;5065133;28;20029;-78
2023/04/12 09:56:55;;;;;;;3.10;1.20;;;;;;;10.95;38.73;93024.13;5063646;28;20091;-80
2023/04/12 09:59:26;;;;;;;3.78;1.27;;;;;;;10.95;39.41;92981.47;5063766;28;20056;-78
2023/04/12 10:01:52;;;;;;;4.20;1.38;;;;;;;10.90;39.39;92975.56;5064906;28;20040;-77
2023/04/12 10:04:18;;;;;;;3.05;1.13;;;;;;;10.85;37.45;92971.25;5064834;28;20033;-77
2023/04/12 10:06:45;;;;;;;5.43;1.05;;;;;;;10.94;33.28;92990.56;5064770;28;20035;-77
2023/04/12 10:09:11;;;;;;;2.03;1.00;;;;;;;10.92;33.65;92984.78;5064654;28;20029;-78
2023/04/12 10:11:40;;;;;;;3.15;1.20;;;;;;;10.86;33.75;92991.47;5064002;28;20025;-78
2023/04/12 10:14:06;;;;;;;4.18;1.00;;;;;;;10.90;32.91;92987.00;5064648;28;20025;-78
2023/04/12 10:16:35;;;;;;;5.35;1.20;;;;;;;10.89;30.77;92982.81;5064521;28;20230;-77
2023/04/12 10:19:02;;;;;;;3.40;1.15;;;;;;;10.88;30.92;92969.81;5064845;28;20235;-78
2023/04/12 10:21:28;;;;;;;7.72;1.38;;;;;;;10.90;32.93;92971.00;5064576;28;20024;-78
2023/04/12 10:23:54;;;;;;;5.65;1.02;;;;;;;11.11;32.82;92967.41;5064383;28;20025;-78
2023/04/12 10:26:19;;;;;;;4.65;1.02;;;;;;;11.11;31.63;92980.75;5064337;28;20346;-78
2023/04/12 10:28:46;;;;;;;1.98;0.80;;;;;;;11.00;32.45;92996.44;5064475;28;20043;-77
2023/04/12 10:31:31;;;;;;;1.77;0.80;;;;;;;10.99;32.49;92950.34;5064159;28;20088;-77
2023/04/12 10:33:56;;;;;;;1.38;0.88;;;;;;;11.14;33.38;92974.75;5064095;28;20032;-77
2023/04/12 10:36:53;;;;;;;2.03;0.85;;;;;;;11.24;33.01;92942.25;5064144;28;20298;-77
2023/04/12 10:39:37;;;;;;;2.22;1.00;;;;;;;11.27;32.72;92930.91;5063995;28;20378;-77
2023/04/12 10:42:22;;;;;;;3.53;1.13;;;;;;;11.19;33.31;92961.16;5064319;28;20021;-77
2023/04/12 10:44:52;;;;;;;1.73;0.93;;;;;;;11.33;32.66;92937.56;5063884;28;20306;-77
2023/04/12 10:47:48;;;;;;;6.43;0.90;;;;;;;11.44;31.16;92962.66;5063980;28;20074;-78
2023/04/12 10:50:23;;;;;;;2.10;1.05;;;;;;;11.35;30.69;92946.00;5064084;28;20231;-78
2023/04/12 10:53:19;;;;;;;3.72;1.13;;;;;;;11.41;30.45;92944.63;5064014;28;20025;-78
2023/04/12 10:55:44;;;;;;;2.92;0.90;;;;;;;11.36;30.56;92944.13;5063770;28;20049;-78
2023/04/12 10:58:30;;;;;;;1.35;0.88;;;;;;;11.49;30.93;92934.16;5063562;28;20036;-77
2023/04/12 11:00:56;;;;;;;4.57;0.93;;;;;;;11.56;30.45;92926.31;5063400;28;20082;-77
2023/04/12 11:03:23;;;;;;;1.45;0.80;;;;;;;11.58;30.06;92930.22;5063568;28;20025;-77
2023/04/12 11:06:03;;;;;;;2.88;1.50;;;;;;;11.54;29.84;92933.91;5063449;28;20056;-78
2023/04/12 11:08:29;;;;;;;5.18;1.00;;;;;;;11.38;28.35;92944.56;5063605;28;20047;-78
2023/04/12 11:11:02;;;;;;;5.45;1.05;;;;;;;11.29;28.06;92914.56;5062346;28;20197;-77
2023/04/12 11:13:34;;;;;;;1.80;1.00;;;;;;;11.34;26.71;92965.78;5063548;28;20309;-78
2023/04/12 11:16:04;;;;;;;4.37;1.57;;;;;;;11.34;27.02;92947.13;5063639;28;20017;-77
2023/04/12 11:18:29;;;;;;;6.57;1.00;;;;;;;11.45;25.65;92947.41;5063530;28;20215;-78
2023/04/12 11:20:56;;;;;;;5.45;0.90;;;;;;;11.51;25.95;92924.69;5063464;28;20265;-77
2023/04/12 11:23:22;;;;;;;2.78;0.80;;;;;;;11.60;25.58;92924.53;5062608;28;20024;-77
2023/04/12 11:25:54;;;;;;;1.83;0.63;;;;;;;11.72;26.28;92929.03;5063017;28;20029;-78
2023/04/12 11:28:20;;;;;;;3.63;0.80;;;;;;;11.74;26.22;92943.59;5063399;28;20252;-78
2023/04/12 11:30:52;;;;;;;1.63;0.70;;;;;;;11.87;26.49;92920.28;5062991;28;20040;-77
2023/04/12 11:33:40;;;;;;;1.60;0.75;;;;;;;11.91;25.48;92909.72;5061912;28;20021;-77
2023/04/12 11:36:11;;;;;;;2.22;0.60;;;;;;;11.68;25.88;92912.91;5063274;28;20025;-77